Mabel, MN

8:05 PM CDT on September 21, 2014 (GMT -0500)
La Crosse Municipal | Change Station
CLOSE
Current Station
Airport
Location: La Crosse,
Elevation: 653 ft
Nearby Weather Stations

Elev 653 ft 43.88 °N, 91.25 °W | Updated 12 minutes ago

Clear
Clear
56 °F
Feels Like 56 °F
N
6
Wind Variable Wind from North

Today
High -- | Low -- °F
--% Chance of Precip.
Yesterday
High -- | Low -- °F
Precip. -- in
6:53 AM 7:06 PM
Waning Crescent, 5% visible
Pressure 30.15 in
Visibility 10.0 miles
Clouds Clear
Dew Point 46 °F
Humidity 69%
Rainfall 0.00 in
Snow Depth Not available.
UV 0 out of 12
Pollen 3.30 out of 12
Air Quality Not available.
Flu Activity Not available.
METAR KLSE 220053Z 35005KT 10SM CLR 13/08 A3015 RMK AO2 SLP208 T01330078

More Conditions Fewer Conditions

Pressure 30.15 in
Visibility 10.0 miles
Clouds Clear
Dew Point 46 °F
Humidity 69%
Rainfall 0.00 in
Snow Depth Not available.
UV 0 out of 12
Pollen 3.30 out of 12
Air Quality Not available.
Flu Activity Not available.
METAR KLSE 220053Z 35005KT 10SM CLR 13/08 A3015 RMK AO2 SLP208 T01330078

More Conditions Fewer Conditions

10-Day Weather Forecast

Almanac

Astronomy

Sep. 21, 2014 Rise Set
Actual Time 6:53 AM CDT 7:06 PM CDT
Civil Twilight 6:24 AM CDT 7:34 PM CDT
Nautical Twilight 5:51 AM CDT 8:08 PM CDT
Astronomical Twilight 5:16 AM CDT 8:42 PM CDT
Moon 4:23 AM CDT (9/21) 5:45 PM CDT (9/21)
Length of Visible Light 13h 10m
Length of Day
12h 13m
Tomorrow will be 2m 58s shorter.
Waning Crescent, 5% of the Moon is Illuminated
Today
Waning Crescent
Sep 24
New
Oct 1
First Quarter
Oct 8
Full
Oct 15
Last Quarter

Today's Extremes

State Highs State Lows

Community

WunderPhotos

Upload Photos

1,755,324 photos uploaded!

WunderBlogs® & News

Nearby

Snow Depth

Station Depth Elevation
No new snow has been reported.

Earthquake Activity

City Distance Mag. Time & Date
No recent earthquake activity has been reported nearby.
Minimum magnitude displayed is 2.5.

Coastal Water Temperatures

Place Temperature
No Stations Reporting

Nearby Weather Stations